createdAt,value
2022-08-09T00:00:46.062Z,15.81
2022-08-09T00:05:03.099Z,15.76
2022-08-09T00:09:25.090Z,15.69
2022-08-09T00:13:32.760Z,15.64
2022-08-09T00:18:05.171Z,15.57
2022-08-09T00:22:08.004Z,15.48
2022-08-09T00:26:29.882Z,15.37
2022-08-09T00:30:42.304Z,15.30
2022-08-09T00:34:52.137Z,15.30
2022-08-09T00:39:00.727Z,15.28
2022-08-09T00:44:15.772Z,15.28
2022-08-09T00:47:41.418Z,15.25
2022-08-09T00:51:54.532Z,15.17
2022-08-09T00:56:09.651Z,15.12
2022-08-09T01:00:21.952Z,15.06
2022-08-09T01:04:34.148Z,15.06
2022-08-09T01:08:51.600Z,15.06
2022-08-09T01:13:07.502Z,15.07
2022-08-09T01:17:20.425Z,15.06
2022-08-09T01:21:50.830Z,15.05
2022-08-09T01:26:12.408Z,15.04
2022-08-09T01:30:33.499Z,15.02
2022-08-09T01:34:52.267Z,14.99
2022-08-09T01:39:02.132Z,14.94
2022-08-09T01:43:10.111Z,14.88
2022-08-09T01:47:18.603Z,14.80
2022-08-09T01:51:27.153Z,14.74
2022-08-09T01:55:40.697Z,14.67
2022-08-09T01:59:52.561Z,14.49
2022-08-09T02:04:01.821Z,14.42
2022-08-09T02:08:39.692Z,14.40
2022-08-09T02:12:41.801Z,14.38
2022-08-09T02:16:59.145Z,14.35
2022-08-09T02:21:22.992Z,14.34
2022-08-09T02:25:33.113Z,14.34
2022-08-09T02:29:53.468Z,14.33
2022-08-09T02:34:13.264Z,14.32
2022-08-09T02:38:28.703Z,14.27
2022-08-09T02:42:40.976Z,14.17
2022-08-09T02:46:52.250Z,14.15
2022-08-09T02:51:02.424Z,14.15
2022-08-09T02:55:20.718Z,14.18
2022-08-09T02:59:36.351Z,14.20
2022-08-09T03:04:17.315Z,14.26
2022-08-09T03:08:16.363Z,14.32
2022-08-09T03:12:25.603Z,14.35
2022-08-09T03:16:33.606Z,14.37
2022-08-09T03:20:45.417Z,14.39
2022-08-09T03:25:06.284Z,14.38
2022-08-09T03:29:23.082Z,14.38
2022-08-09T03:33:54.457Z,14.40
2022-08-09T03:37:59.932Z,14.41
2022-08-09T03:42:08.533Z,14.44
2022-08-09T03:46:20.712Z,14.38
2022-08-09T03:50:36.472Z,14.30
2022-08-09T03:54:44.413Z,14.30
2022-08-09T03:58:52.466Z,14.35
2022-08-09T04:03:04.129Z,14.36
2022-08-09T04:07:14.808Z,14.46
2022-08-09T04:11:25.030Z,14.57
2022-08-09T04:15:52.095Z,14.63
2022-08-09T04:20:02.678Z,14.61
2022-08-09T04:24:11.001Z,14.67
2022-08-09T04:28:31.433Z,14.74
2022-08-09T04:32:46.870Z,14.83
2022-08-09T04:36:54.945Z,14.88
2022-08-09T04:41:02.277Z,14.86
2022-08-09T04:45:12.467Z,14.92
2022-08-09T04:49:30.127Z,14.91
2022-08-09T04:53:53.830Z,14.96
2022-08-09T04:58:09.616Z,15.02
2022-08-09T05:02:17.558Z,15.05
2022-08-09T05:06:27.922Z,14.96
2022-08-09T05:10:36.846Z,14.96
2022-08-09T05:14:44.924Z,15.03
2022-08-09T05:18:59.212Z,15.18
2022-08-09T05:23:54.879Z,15.30
2022-08-09T05:27:34.982Z,15.47
2022-08-09T05:31:57.566Z,15.66
2022-08-09T05:36:07.155Z,15.84
2022-08-09T05:40:16.291Z,15.99
2022-08-09T05:44:29.074Z,16.15
2022-08-09T05:48:42.088Z,16.31
2022-08-09T05:52:53.366Z,16.46
2022-08-09T05:57:01.816Z,16.62
2022-08-09T06:01:15.999Z,16.87
2022-08-09T06:05:50.480Z,17.04
2022-08-09T06:10:02.000Z,17.17
2022-08-09T06:14:11.160Z,17.30
2022-08-09T06:18:18.952Z,17.37
2022-08-09T06:22:28.974Z,17.47
2022-08-09T06:26:43.698Z,17.62
2022-08-09T06:30:53.327Z,17.78
2022-08-09T06:35:01.215Z,17.88
2022-08-09T06:39:14.780Z,18.12
2022-08-09T06:43:23.415Z,18.28
2022-08-09T06:47:39.846Z,18.37
2022-08-09T06:51:49.368Z,18.47
2022-08-09T06:55:59.339Z,18.59
2022-08-09T07:00:55.908Z,18.75
2022-08-09T07:04:36.451Z,18.87
2022-08-09T07:08:43.963Z,19.01
2022-08-09T07:12:57.063Z,19.14
2022-08-09T07:17:05.876Z,19.28
2022-08-09T07:21:15.817Z,19.41
2022-08-09T07:25:23.248Z,19.56
2022-08-09T07:29:38.044Z,19.67
2022-08-09T07:33:53.024Z,19.79
2022-08-09T07:38:03.030Z,19.92
2022-08-09T07:42:11.660Z,20.07
2022-08-09T07:46:19.553Z,20.23
2022-08-09T07:50:32.990Z,20.35
2022-08-09T07:54:51.424Z,20.54
2022-08-09T07:59:00.213Z,20.68
2022-08-09T08:03:11.454Z,20.78
2022-08-09T08:08:43.914Z,20.83
2022-08-09T08:12:11.615Z,20.93
2022-08-09T08:16:31.396Z,21.03
2022-08-09T08:20:42.903Z,21.19
2022-08-09T08:24:55.912Z,21.32
2022-08-09T08:29:05.038Z,21.45
2022-08-09T08:33:24.131Z,21.58
2022-08-09T08:37:41.154Z,21.73
2022-08-09T08:42:00.787Z,21.82
2022-08-09T08:46:33.052Z,21.87
2022-08-09T08:50:38.514Z,22.22
2022-08-09T08:54:45.947Z,22.53
2022-08-09T08:58:56.468Z,22.69
2022-08-09T09:03:11.511Z,22.76
2022-08-09T09:07:22.112Z,22.85
2022-08-09T09:11:33.861Z,22.95
2022-08-09T09:15:49.173Z,23.04
2022-08-09T09:19:58.505Z,23.17
2022-08-09T09:24:21.403Z,23.36
2022-08-09T09:29:01.689Z,23.37
2022-08-09T09:33:17.238Z,23.51
2022-08-09T09:37:32.510Z,23.71
2022-08-09T09:41:48.971Z,23.93
2022-08-09T09:46:39.584Z,24.02
2022-08-09T09:50:49.568Z,24.21
2022-08-09T09:55:16.641Z,24.38
2022-08-09T09:59:37.866Z,24.62
2022-08-09T10:03:57.184Z,24.78
2022-08-09T10:08:27.364Z,24.87
2022-08-09T10:12:43.607Z,24.88
2022-08-09T10:17:11.354Z,25.06
2022-08-09T10:21:26.061Z,24.98
2022-08-09T10:26:06.921Z,24.99
2022-08-09T10:30:43.910Z,24.99
2022-08-09T10:34:35.784Z,25.04
2022-08-09T10:38:57.257Z,25.17
2022-08-09T10:43:11.212Z,25.21
2022-08-09T10:48:19.203Z,25.30
2022-08-09T10:52:13.571Z,25.38
2022-08-09T10:56:31.014Z,25.39
2022-08-09T11:03:01.664Z,25.45
2022-08-09T11:05:24.860Z,25.49
2022-08-09T11:09:53.875Z,25.56
2022-08-09T11:14:35.181Z,25.62
2022-08-09T11:18:48.452Z,25.61
2022-08-09T11:23:07.145Z,25.63
2022-08-09T11:28:03.999Z,25.64
2022-08-09T11:32:02.391Z,25.71
2022-08-09T11:36:10.507Z,25.76
2022-08-09T11:40:37.479Z,25.93
2022-08-09T11:44:49.783Z,26.06
2022-08-09T11:48:58.791Z,26.24
2022-08-09T11:53:57.647Z,26.46
2022-08-09T11:58:00.988Z,26.72
2022-08-09T12:02:37.593Z,26.82
2022-08-09T12:06:55.974Z,26.82
2022-08-09T12:11:05.133Z,26.78
2022-08-09T12:15:50.420Z,26.86
2022-08-09T12:19:59.562Z,26.94
2022-08-09T12:24:10.379Z,27.07
2022-08-09T12:29:09.667Z,27.24
2022-08-09T12:32:48.721Z,27.33
2022-08-09T12:37:21.778Z,27.20
2022-08-09T12:41:39.035Z,27.21
2022-08-09T12:45:59.876Z,27.28
2022-08-09T12:50:19.917Z,27.38
2022-08-09T12:54:31.213Z,27.51
2022-08-09T12:58:42.682Z,27.80
2022-08-09T13:02:57.331Z,28.01
2022-08-09T13:07:16.787Z,27.95
2022-08-09T13:11:32.152Z,27.85
2022-08-09T13:15:53.964Z,28.04
2022-08-09T13:20:14.085Z,28.20
2022-08-09T13:24:48.423Z,28.36
2022-08-09T13:29:09.461Z,28.48
2022-08-09T13:33:24.770Z,28.04
2022-08-09T13:37:53.426Z,27.60
2022-08-09T13:42:05.509Z,27.42
2022-08-09T13:47:15.217Z,27.65
2022-08-09T13:50:48.258Z,27.53
2022-08-09T13:55:00.682Z,27.29
2022-08-09T13:59:13.132Z,27.14
2022-08-09T14:04:03.610Z,27.07
2022-08-09T14:07:49.591Z,27.12
2022-08-09T14:12:01.036Z,27.05
2022-08-09T14:16:16.347Z,27.01
2022-08-09T14:20:29.012Z,27.05
2022-08-09T14:24:36.893Z,26.98
2022-08-09T14:28:57.334Z,27.01
2022-08-09T14:33:11.455Z,27.08
2022-08-09T14:37:20.422Z,27.06
2022-08-09T14:41:40.026Z,27.05
2022-08-09T14:46:51.421Z,27.04
2022-08-09T14:50:17.409Z,27.03
2022-08-09T14:54:27.537Z,27.21
2022-08-09T14:58:43.734Z,27.25
2022-08-09T15:02:52.243Z,27.12
2022-08-09T15:06:59.376Z,26.84
2022-08-09T15:11:07.800Z,26.71
2022-08-09T15:15:15.418Z,26.70
2022-08-09T15:19:26.228Z,26.69
2022-08-09T15:24:03.599Z,26.69
2022-08-09T15:28:02.168Z,26.49
2022-08-09T15:32:39.089Z,26.33
2022-08-09T15:36:38.577Z,26.19
2022-08-09T15:40:56.686Z,26.08
2022-08-09T15:45:05.359Z,25.95
2022-08-09T15:49:22.732Z,25.93
2022-08-09T15:54:05.691Z,26.07
2022-08-09T15:58:00.196Z,26.27
2022-08-09T16:02:09.365Z,26.46
2022-08-09T16:06:32.556Z,26.49
2022-08-09T16:10:56.257Z,26.55
2022-08-09T16:15:05.395Z,26.65
2022-08-09T16:19:36.871Z,26.72
2022-08-09T16:23:58.629Z,26.72
2022-08-09T16:28:06.734Z,26.68
2022-08-09T16:32:33.551Z,26.70
2022-08-09T16:36:41.714Z,26.80
2022-08-09T16:40:48.892Z,26.82
2022-08-09T16:44:56.600Z,26.85
2022-08-09T16:49:18.688Z,26.86
2022-08-09T16:53:33.816Z,26.81
2022-08-09T16:58:08.667Z,26.71
2022-08-09T17:02:14.006Z,26.58
2022-08-09T17:06:31.248Z,26.49
2022-08-09T17:10:40.958Z,26.47
2022-08-09T17:14:54.862Z,26.45
2022-08-09T17:19:05.488Z,26.43
2022-08-09T17:23:14.722Z,26.43
2022-08-09T17:27:22.496Z,26.40
2022-08-09T17:31:30.044Z,26.32
2022-08-09T17:35:46.689Z,26.18
2022-08-09T17:39:56.366Z,26.04
2022-08-09T17:44:42.209Z,25.92
2022-08-09T17:48:31.377Z,25.77
2022-08-09T17:52:38.971Z,25.65
2022-08-09T17:56:47.659Z,25.50
2022-08-09T18:00:56.438Z,25.35
2022-08-09T18:05:04.822Z,25.18
2022-08-09T18:09:12.944Z,25.02
2022-08-09T18:13:40.067Z,24.84
2022-08-09T18:18:03.997Z,24.64
2022-08-09T18:22:16.861Z,24.40
2022-08-09T18:26:24.914Z,24.17
2022-08-09T18:30:35.117Z,23.94
2022-08-09T18:34:50.374Z,23.72
2022-08-09T18:39:02.765Z,23.54
2022-08-09T18:43:11.050Z,23.36
2022-08-09T18:47:23.827Z,23.16
2022-08-09T18:51:38.402Z,22.97
2022-08-09T18:56:01.056Z,22.77
2022-08-09T19:00:19.202Z,22.65
2022-08-09T19:04:35.250Z,22.51
2022-08-09T19:08:54.872Z,22.35
2022-08-09T19:13:13.616Z,22.15
2022-08-09T19:17:31.315Z,21.95
2022-08-09T19:22:04.302Z,21.78
2022-08-09T19:26:13.877Z,21.64
2022-08-09T19:30:28.822Z,21.53
2022-08-09T19:34:43.607Z,21.39
2022-08-09T19:38:52.073Z,21.26
2022-08-09T19:42:59.947Z,21.12
2022-08-09T19:47:11.078Z,20.96
2022-08-09T19:51:18.868Z,20.78
2022-08-09T19:55:53.039Z,20.65
2022-08-09T19:59:59.365Z,20.49
2022-08-09T20:04:25.090Z,20.34
2022-08-09T20:08:37.406Z,20.25
2022-08-09T20:12:46.779Z,20.15
2022-08-09T20:16:57.172Z,20.06
2022-08-09T20:21:08.557Z,19.94
2022-08-09T20:25:22.866Z,19.82
2022-08-09T20:29:37.357Z,19.71
2022-08-09T20:33:45.827Z,19.60
2022-08-09T20:38:21.119Z,19.49
2022-08-09T20:42:21.474Z,19.36
2022-08-09T20:46:42.452Z,19.23
2022-08-09T20:50:55.784Z,19.13
2022-08-09T20:55:08.786Z,19.05
2022-08-09T20:59:25.014Z,19.01
2022-08-09T21:04:07.952Z,18.99
2022-08-09T21:08:14.693Z,18.93
2022-08-09T21:12:22.211Z,18.84
2022-08-09T21:16:30.571Z,18.74
2022-08-09T21:20:39.412Z,18.71
2022-08-09T21:25:04.420Z,18.67
2022-08-09T21:29:14.530Z,18.61
2022-08-09T21:33:36.118Z,18.54
2022-08-09T21:37:58.830Z,18.45
2022-08-09T21:42:10.127Z,18.37
2022-08-09T21:46:19.363Z,18.29
2022-08-09T21:50:38.519Z,18.27
2022-08-09T21:54:50.536Z,18.25
2022-08-09T21:59:01.136Z,18.26
2022-08-09T22:03:19.173Z,18.26
2022-08-09T22:07:41.522Z,18.25
2022-08-09T22:12:18.079Z,18.20
2022-08-09T22:16:24.970Z,18.05
2022-08-09T22:20:32.536Z,18.00
2022-08-09T22:24:40.408Z,17.99
2022-08-09T22:29:09.998Z,17.95
2022-08-09T22:33:18.054Z,17.88
2022-08-09T22:37:29.233Z,17.83
2022-08-09T22:41:48.408Z,17.77
2022-08-09T22:48:12.118Z,17.73
2022-08-09T22:50:23.942Z,17.68
2022-08-09T22:54:32.830Z,17.56
2022-08-09T22:58:40.353Z,17.36
2022-08-09T23:02:50.183Z,17.18
2022-08-09T23:07:16.431Z,17.14
2022-08-09T23:11:24.554Z,17.12
2022-08-09T23:15:32.440Z,17.07
2022-08-09T23:20:06.471Z,17.04
2022-08-09T23:24:08.064Z,17.02
2022-08-09T23:28:16.259Z,17.00
2022-08-09T23:32:23.932Z,16.97
2022-08-09T23:36:31.680Z,16.94
2022-08-09T23:40:39.295Z,16.94
2022-08-09T23:44:48.651Z,16.98
2022-08-09T23:48:57.086Z,16.98
2022-08-09T23:53:04.848Z,16.91
2022-08-09T23:57:13.244Z,16.86
